Terminal Aerodrome Forecast
Issued by NWS Sterling, VA

Current Version | Previous Version | Graphics & Text | Print | Product List | Glossary On
Versions: 1 2 3 4 5 6 7 8 9 10 11 12 13 14 15 16 17 18 19 20 21 22 23 24 25 26 27 28 29 30 31
000
FTUS41 KLWX 010539
TAFDCA
TAF
KDCA 010539Z 0106/0206 26010KT 5SM -TSRA OVC035CB
     FM010630 20004KT P6SM VCTS BKN060CB
     FM010800 20004KT P6SM BKN060
     FM011100 23004KT P6SM SCT120
     FM011600 26006KT P6SM VCTS SCT050CB
     FM011800 24008KT P6SM SCT050
     FM012000 26008KT P6SM BKN050
     FM020000 VRB03KT P6SM SCT090=

USA.gov is the U.S. government's official web portal to all federal, state and local government web resources and services.